<?xml version='1.0' encoding='UTF-8'?>
<gpx xmlns="http://www.topografix.com/GPX/1/1" creator="www.balnam.be" version="1.1" xmlns:xsi="http://www.w3.org/2001/XMLSchema-instance" xsi:schemaLocation="http://www.topografix.com/GPX/1/1 http://www.topografix.com/GPX/1/1/gpx.xsd">
<trk>
<name>ngdgd1</name>
<cmt>r</cmt>
<desc>Gedinne Chemin n°1 Rue de Dinant</desc>
<link href="https://chemins.be/gedinne/chemin/1"/><trkseg>
<trkpt lat="49.981970" lon="4.937782"><time>2026-05-02T21:27:53Z</time></trkpt>
<trkpt lat="49.983251" lon="4.938815"><time>2026-05-02T21:37:53Z</time></trkpt>
<trkpt lat="49.983985" lon="4.941362"><time>2026-05-02T21:47:53Z</time></trkpt>
<trkpt lat="49.984904" lon="4.948052"><time>2026-05-02T21:57:53Z</time></trkpt>
</trkseg></trk>
<trk>
<name>ngdgd1</name>
<cmt>d</cmt>
<desc>Gedinne Chemin n°1 Rue de Dinant</desc>
<link href="https://chemins.be/gedinne/chemin/1"/><trkseg>
<trkpt lat="49.984904" lon="4.948052"><time>2026-05-02T21:57:53Z</time></trkpt>
<trkpt lat="49.985974" lon="4.949808"><time>2026-05-02T22:07:53Z</time></trkpt>
<trkpt lat="49.986374" lon="4.950747"><time>2026-05-02T22:17:53Z</time></trkpt>
</trkseg></trk>
<trk>
<name>ngdgd1</name>
<cmt>s</cmt>
<desc>Gedinne Chemin n°1 Rue de Dinant</desc>
<link href="https://chemins.be/gedinne/chemin/1"/><trkseg>
<trkpt lat="49.986374" lon="4.950747"><time>2026-05-02T22:17:53Z</time></trkpt>
<trkpt lat="49.987267" lon="4.953645"><time>2026-05-02T22:27:53Z</time></trkpt>
<trkpt lat="49.987759" lon="4.955993"><time>2026-05-02T22:37:53Z</time></trkpt>
<trkpt lat="49.988230" lon="4.957017"><time>2026-05-02T22:47:53Z</time></trkpt>
<trkpt lat="49.988946" lon="4.957723"><time>2026-05-02T22:57:53Z</time></trkpt>
</trkseg></trk>
<trk>
<name>ngdgd1</name>
<cmt>r</cmt>
<desc>Gedinne Chemin n°1 Rue de Dinant</desc>
<link href="https://chemins.be/gedinne/chemin/1"/><trkseg>
<trkpt lat="49.988946" lon="4.957723"><time>2026-05-02T22:57:53Z</time></trkpt>
<trkpt lat="49.989529" lon="4.959697"><time>2026-05-02T23:07:53Z</time></trkpt>
<trkpt lat="49.989976" lon="4.960274"><time>2026-05-02T23:17:53Z</time></trkpt>
</trkseg></trk>
<trk>
<name>ngdgd1</name>
<cmt>s</cmt>
<desc>Gedinne Chemin n°1 Rue de Dinant</desc>
<link href="https://chemins.be/gedinne/chemin/1"/><trkseg>
<trkpt lat="49.989976" lon="4.960274"><time>2026-05-02T23:17:53Z</time></trkpt>
<trkpt lat="49.990262" lon="4.960529"><time>2026-05-02T23:27:53Z</time></trkpt>
<trkpt lat="49.990472" lon="4.963460"><time>2026-05-02T23:37:53Z</time></trkpt>
<trkpt lat="49.992070" lon="4.965669"><time>2026-05-02T23:47:53Z</time></trkpt>
</trkseg></trk>
<trk>
<name>ngdgd1</name>
<cmt>r</cmt>
<desc>Gedinne Chemin n°1 Rue de Dinant</desc>
<link href="https://chemins.be/gedinne/chemin/1"/><trkseg>
<trkpt lat="49.992070" lon="4.965669"><time>2026-05-02T23:47:53Z</time></trkpt>
<trkpt lat="49.992965" lon="4.968135"><time>2026-05-02T23:57:53Z</time></trkpt>
<trkpt lat="49.993832" lon="4.970893"><time>2026-05-03T00:07:53Z</time></trkpt>
</trkseg></trk>
<trk>
<name>ngdgd1</name>
<cmt>v</cmt>
<desc>Gedinne Chemin n°1 Rue de Dinant</desc>
<link href="https://chemins.be/gedinne/chemin/1"/><trkseg>
<trkpt lat="49.993832" lon="4.970893"><time>2026-05-03T00:07:53Z</time></trkpt>
<trkpt lat="49.993953" lon="4.973377"><time>2026-05-03T00:17:53Z</time></trkpt>
<trkpt lat="49.994884" lon="4.975983"><time>2026-05-03T00:27:53Z</time></trkpt>
<trkpt lat="49.995622" lon="4.977499"><time>2026-05-03T00:37:53Z</time></trkpt>
<trkpt lat="49.995505" lon="4.982533"><time>2026-05-03T00:47:53Z</time></trkpt>
<trkpt lat="49.995780" lon="4.983317"><time>2026-05-03T00:57:53Z</time></trkpt>
</trkseg></trk>
<trk>
<name>ngdgd1</name>
<cmt>s</cmt>
<desc>Gedinne Chemin n°1 Rue de Dinant</desc>
<link href="https://chemins.be/gedinne/chemin/1"/><trkseg>
<trkpt lat="49.995780" lon="4.983317"><time>2026-05-03T00:57:53Z</time></trkpt>
<trkpt lat="49.996238" lon="4.984131"><time>2026-05-03T01:07:53Z</time></trkpt>
</trkseg></trk>
<trk>
<name>ngdgd1</name>
<cmt>v</cmt>
<desc>Gedinne Chemin n°1 Rue de Dinant</desc>
<link href="https://chemins.be/gedinne/chemin/1"/><trkseg>
<trkpt lat="49.996238" lon="4.984131"><time>2026-05-03T01:07:53Z</time></trkpt>
<trkpt lat="49.996241" lon="4.984445"><time>2026-05-03T01:17:53Z</time></trkpt>
<trkpt lat="49.996583" lon="4.986061"><time>2026-05-03T01:27:53Z</time></trkpt>
<trkpt lat="49.996655" lon="4.989009"><time>2026-05-03T01:37:53Z</time></trkpt>
<trkpt lat="49.996883" lon="4.990459"><time>2026-05-03T01:47:53Z</time></trkpt>
</trkseg>
</trk>
</gpx>